Latest Weather Observations for Warrnambool

IDV60801

Issued at 9:03 am EST Thursday 27 April 2017 (issued every 30 minutes, with the page automatically refreshed every 10 minutes)

About weather observations | Map of weather stations | Latest weather observations for VIC | Other Formats
Station Details ID: 090186 Name: WARRNAMBOOL AIRPORT NDB Lat: -38.29 Lon: 142.45 Height: 70.8 m
Data from the previous 72 hours. | See also: Recent months at Warrnambool
Date/Time
EST
Temp
°C
App
Temp
°C
Dew
Point
°C
Rel
Hum
%
Delta-T
°C
Wind Press
QNH
hPa
Press
MSL
hPa
Rain since
9am
mm
Dir  Spd
km/h
Gust
km/h
Spd
kts
Gust
kts
27/09:00am 10.3 7.8 8.2 87 1.0 NW 11 15 6 8 1024.7 1024.7 2.4
27/08:30am 10.0 7.9 8.3 89 0.8 WNW 9 13 5 7 1024.4 1024.4 2.4
27/08:00am 9.6 5.8 7.7 88 0.9 S 17 24 9 13 1024.2 1024.2 2.4
27/07:30am 10.1 6.2 7.2 82 1.4 W 17 22 9 12 1023.9 1023.9 2.4
27/07:00am 10.7 6.0 5.9 72 2.2 SW 20 33 11 18 1023.6 1023.6 2.4
27/06:30am 9.7 6.5 6.8 82 1.4 SW 13 17 7 9 1023.4 1023.4 2.4
27/06:00am 8.3 4.5 5.6 83 1.2 SW 15 17 8 9 1023.4 1023.4 2.4
27/05:30am 10.1 6.1 6.6 79 1.6 SW 17 20 9 11 1023.2 1023.2 2.4
27/05:00am 9.7 5.6 6.1 78 1.7 SW 17 20 9 11 1022.9 1022.9 2.4
27/04:30am 9.1 5.3 5.8 80 1.5 SSW 15 20 8 11 1022.5 1022.5 2.4
27/04:00am 8.8 5.0 5.7 81 1.4 SSW 15 20 8 11 1022.4 1022.4 2.4
27/03:30am 9.1 4.3 4.7 74 2.0 SSW 19 24 10 13 1022.4 1022.4 2.4
27/03:00am 8.7 4.7 5.1 78 1.6 SSW 15 19 8 10 1022.6 1022.6 2.4
27/02:30am 7.9 3.9 4.7 80 1.4 SW 15 19 8 10 1022.7 1022.7 2.4
27/02:00am 9.6 5.0 5.6 76 1.8 SSW 19 24 10 13 1022.6 1022.6 2.4
27/01:30am 9.0 4.3 5.0 76 1.8 SSW 19 20 10 11 1022.4 1022.4 2.4
27/01:00am 9.5 4.6 5.3 75 1.9 SSW 20 24 11 13 1022.2 1022.2 2.4
27/12:30am 9.6 5.9 6.1 79 1.6 S 15 20 8 11 1022.1 1022.1 2.4
27/12:00am 9.7 4.8 7.0 83 1.3 SSE 22 32 12 17 1022.2 1022.2 2.4
 
Date/Time
EST
Temp
°C
App
Temp
°C
Dew
Point
°C
Rel
Hum
%
Delta-T
°C
Wind Press
QNH
hPa
Press
MSL
hPa
Rain since
9am
mm
Dir  Spd
km/h
Gust
km/h
Spd
kts
Gust
kts
26/11:30pm 8.7 6.0 5.8 82 1.3 S 9 11 5 6 1022.0 1022.0 2.4
26/11:00pm 9.3 3.9 6.2 81 1.4 SW 24 28 13 15 1022.0 1022.0 2.4
26/10:30pm 8.5 4.5 6.6 88 0.9 SW 17 20 9 11 1021.9 1021.9 2.4
26/10:00pm 9.2 2.8 7.0 86 1.0 SW 30 39 16 21 1022.0 1022.0 2.4
26/09:31pm 9.0 1.9 6.4 84 1.2 SSW 33 52 18 28 1021.6 1021.6 2.4
26/09:30pm 9.0 1.6 6.6 85 1.1 SSW 35 52 19 28 1021.6 1021.6 2.4
26/09:21pm 9.9 3.0 6.4 79 1.6 SSW 32 50 17 27 1021.5 1021.5 2.2
26/09:00pm 10.2 4.0 4.1 66 2.7 SSW 26 33 14 18 1021.2 1021.2 2.2
26/08:30pm 9.7 3.6 4.9 72 2.2 SSW 26 33 14 18 1020.9 1020.9 2.2
26/08:00pm 9.8 2.1 5.2 73 2.1 SSW 35 46 19 25 1020.8 1020.8 2.2
26/07:30pm 10.3 3.3 4.0 65 2.8 SSW 30 39 16 21 1020.5 1020.5 2.2
26/07:00pm 9.7 2.2 3.7 66 2.6 SSW 32 43 17 23 1020.2 1020.2 2.2
26/06:30pm 10.5 3.6 4.4 66 2.7 SSW 30 41 16 22 1019.8 1019.8 2.2
26/06:00pm 10.2 2.7 4.4 67 2.6 SSW 33 50 18 27 1019.5 1019.5 2.2
26/05:30pm 10.3 3.9 5.3 71 2.3 SSW 28 37 15 20 1019.2 1019.2 2.2
26/05:00pm 10.2 3.6 6.0 75 1.9 SSW 30 39 16 21 1018.9 1018.9 2.2
26/04:41pm 10.3 4.3 7.0 80 1.6 S 28 46 15 25 1018.7 1018.7 2.2
26/04:32pm 10.0 3.0 5.8 75 1.9 SSW 32 50 17 27 1018.5 1018.4 2.2
26/04:30pm 10.1 2.8 5.5 73 2.1 SSW 33 50 18 27 1018.5 1018.4 2.2
26/04:27pm 10.7 2.9 5.0 68 2.6 SSW 35 50 19 27 1018.4 1018.3 2.2
26/04:19pm 10.1 1.8 5.9 75 1.9 SSW 39 54 21 29 1018.3 1018.2 2.2
26/04:00pm 11.3 3.7 5.6 68 2.6 SW 35 46 19 25 1018.1 1018.0 2.2
26/03:30pm 11.2 3.3 6.3 72 2.3 SW 37 46 20 25 1018.0 1017.9 2.2
26/03:00pm 10.4 3.4 8.5 88 0.9 SW 35 48 19 26 1017.8 1017.7 2.2
26/02:53pm 9.1 2.2 6.4 83 1.3 SW 32 48 17 26 1017.9 1017.8 2.2
26/02:30pm 9.9 5.6 7.7 86 1.1 SW 20 28 11 15 1017.7 1017.6 2.0
26/02:16pm 9.9 5.7 7.3 84 1.2 SW 19 33 10 18 1017.6 1017.5 2.0
26/02:04pm 9.4 3.6 8.0 91 0.7 SW 28 46 15 25 1017.6 1017.5 2.0
26/02:00pm 8.4 1.4 6.7 89 0.8 SW 33 46 18 25 1017.7 1017.6 2.0
26/01:48pm 9.0 2.2 6.8 86 1.0 SW 32 41 17 22 1017.6 1017.5 0.2
26/01:30pm 10.3 1.5 5.7 73 2.1 SW 41 52 22 28 1017.5 1017.4 0.0
26/01:00pm 12.0 3.5 5.2 63 3.1 SSW 39 52 21 28 1017.3 1017.2 0.0
26/12:30pm 12.0 2.4 4.5 60 3.4 SSW 44 59 24 32 1017.2 1017.1 0.0
26/12:00pm 12.1 3.4 5.9 66 2.9 SSW 41 59 22 32 1017.0 1016.9 0.0
26/11:59am 11.6 2.7 5.3 65 2.9 SSW 41 59 22 32 1017.1 1017.0 0.0
26/11:30am 11.8 2.7 4.1 59 3.5 SSW 41 50 22 27 1016.8 1016.7 0.0
26/11:10am 11.7 2.0 2.7 54 3.9 SSW 43 61 23 33 1016.4 1016.3 0.0
26/11:00am 11.4 2.2 3.7 59 3.4 SSW 41 56 22 30 1016.3 1016.2 0.0
26/10:51am 11.9 6.2 4.9 62 3.2 S 24 50 13 27 1016.1 1016.0 0.0
26/10:30am 10.9 3.0 4.4 64 2.9 SSW 35 46 19 25 1016.0 1015.9 0.0
26/10:00am 10.4 -0.6 5.2 70 2.4 SSW 52 67 28 36 1015.5 1015.4 0.0
26/09:54am 10.2 1.0 5.4 72 2.2 SSW 43 63 23 34 1015.4 1015.3 0.0
26/09:30am 11.3 2.7 4.5 63 3.1 SSW 39 50 21 27 1015.0 1014.9 0.0
26/09:00am 10.3 1.1 3.6 63 2.9 S 41 50 22 27 1014.5 1014.4 11.4
26/08:30am 10.4 1.7 4.1 65 2.8 SSW 39 50 21 27 1013.8 1013.7 11.4
26/08:00am 10.0 0.7 5.0 71 2.3 SSW 43 56 23 30 1013.1 1013.0 11.4
26/07:44am 9.9 0.8 5.7 75 1.9 S 43 65 23 35 1012.5 1012.5 11.4
26/07:30am 10.3 2.0 4.0 65 2.8 S 37 48 20 26 1012.0 1012.0 11.4
26/07:00am 10.4 1.9 3.4 62 3.1 S 37 48 20 26 1011.5 1011.5 11.4
26/06:30am 10.7 1.7 4.6 66 2.8 SSW 41 54 22 29 1010.8 1010.8 11.4
26/06:00am 10.2 2.4 5.0 70 2.4 SSW 35 46 19 25 1010.2 1010.2 11.4
26/05:32am 10.5 2.5 5.5 71 2.3 SSW 37 56 20 30 1009.6 1009.6 11.4
26/05:30am 10.0 2.4 5.6 74 2.0 SSW 35 46 19 25 1009.6 1009.6 11.4
26/05:00am 10.2 2.1 5.4 72 2.2 SSW 37 50 20 27 1008.8 1008.8 11.4
26/04:44am 10.5 2.9 5.9 73 2.1 SSW 35 54 19 29 1008.4 1008.4 11.0
26/04:30am 10.6 2.4 4.7 67 2.7 SSW 37 52 20 28 1008.0 1008.0 11.0
26/04:00am 10.9 3.0 6.3 73 2.2 SSW 37 54 20 29 1007.3 1007.3 11.0
26/03:30am 11.2 3.3 6.1 71 2.4 S 37 46 20 25 1006.9 1006.9 11.0
26/03:18am 11.2 4.4 6.9 75 2.1 SSW 32 46 17 25 1006.7 1006.7 11.0
26/03:00am 10.4 5.7 7.6 83 1.4 SSW 22 28 12 15 1006.4 1006.3 11.0
26/02:38am 10.9 5.0 7.4 79 1.7 SSW 28 46 15 25 1006.5 1006.4 11.0
26/02:30am 10.5 5.8 7.9 84 1.3 SSW 22 32 12 17 1006.3 1006.2 11.0
26/02:00am 10.4 4.5 7.6 83 1.4 SSW 28 39 15 21 1006.2 1006.1 11.0
26/01:30am 10.0 6.2 9.1 94 0.4 SW 19 24 10 13 1006.1 1006.0 10.8
26/01:00am 10.0 4.9 9.1 94 0.4 SW 26 33 14 18 1006.2 1006.1 10.4
26/12:30am 10.2 4.0 9.3 94 0.4 SSW 32 41 17 22 1005.6 1005.5 10.0
26/12:05am 10.3 2.0 9.4 94 0.5 SW 43 57 23 31 1005.8 1005.7 8.6
26/12:00am 10.4 1.5 9.3 93 0.6 SW 46 57 25 31 1005.8 1005.7 8.2
 
Date/Time
EST
Temp
°C
App
Temp
°C
Dew
Point
°C
Rel
Hum
%
Delta-T
°C
Wind Press
QNH
hPa
Press
MSL
hPa
Rain since
9am
mm
Dir  Spd
km/h
Gust
km/h
Spd
kts
Gust
kts
25/11:40pm 10.7 0.4 9.8 94 0.5 SW 54 72 29 39 1005.4 1005.3 7.4
25/11:39pm 10.7 0.4 9.8 94 0.5 SW 54 72 29 39 1005.4 1005.3 7.4
25/11:30pm 11.0 1.2 10.1 94 0.5 SW 52 70 28 38 1005.3 1005.2 7.2
25/11:28pm 11.1 2.1 10.2 94 0.5 SW 48 69 26 37 1005.2 1005.1 7.2
25/11:21pm 11.1 5.1 10.2 94 0.5 SW 32 50 17 27 1005.1 1005.0 7.0
25/11:14pm 11.1 5.9 10.2 94 0.5 WSW 28 43 15 23 1005.1 1005.0 6.2
25/11:04pm 11.3 5.2 10.4 94 0.5 W 33 59 18 32 1005.2 1005.1 5.6
25/11:01pm 12.0 6.7 11.1 94 0.5 WNW 30 59 16 32 1005.0 1004.9 4.6
25/11:00pm 12.4 7.9 11.5 94 0.5 NW 26 48 14 26 1005.0 1004.9 4.2
25/10:30pm 12.7 8.6 11.3 91 0.7 NW 24 33 13 18 1004.8 1004.7 3.6
25/10:00pm 12.9 8.4 11.5 91 0.7 NW 26 33 14 18 1005.0 1004.9 3.6
25/09:30pm 12.9 8.5 11.6 92 0.7 NW 26 35 14 19 1005.2 1005.1 3.6
25/09:00pm 13.0 8.7 12.1 94 0.5 NW 26 39 14 21 1005.5 1005.4 3.6
25/08:30pm 13.1 9.6 12.2 94 0.5 NW 22 32 12 17 1005.9 1005.8 3.6
25/08:00pm 12.7 9.5 11.8 94 0.5 NNW 20 30 11 16 1006.1 1006.0 3.6
25/07:30pm 12.4 10.0 11.5 94 0.5 NW 15 17 8 9 1006.2 1006.1 3.6
25/07:00pm 12.5 10.2 11.6 94 0.5 WNW 15 22 8 12 1006.4 1006.3 3.6
25/06:30pm 13.0 10.0 12.1 94 0.5 WNW 19 28 10 15 1006.3 1006.2 3.6
25/06:08pm 13.3 10.3 12.4 94 0.5 WNW 20 26 11 14 1006.2 1006.1 3.4
25/06:00pm 13.4 10.0 12.5 94 0.5 WNW 22 33 12 18 1006.2 1006.1 3.4
25/05:42pm 14.2 12.0 13.2 94 0.6 W 17 24 9 13 1006.1 1006.0 1.6
25/05:30pm 14.7 13.0 13.6 93 0.6 W 15 17 8 9 1005.9 1005.8 0.4
25/05:00pm 15.2 13.0 13.4 89 1.0 W 17 22 9 12 1005.9 1005.8 0.4
25/04:30pm 16.9 15.6 13.6 81 1.9 NW 13 17 7 9 1005.8 1005.7 0.4
25/04:00pm 17.2 16.1 13.1 77 2.3 NW 11 17 6 9 1005.8 1005.7 0.4
25/03:30pm 18.6 17.0 12.8 69 3.3 NW 13 20 7 11 1005.9 1005.8 0.4
25/03:00pm 18.6 17.3 12.4 67 3.5 NW 11 19 6 10 1006.3 1006.2 0.4
25/02:30pm 16.7 15.1 12.8 78 2.2 WSW 13 20 7 11 1006.7 1006.7 0.4
25/02:00pm 17.8 15.0 13.1 74 2.7 WSW 20 30 11 16 1007.3 1007.3 0.4
25/01:30pm 17.8 15.6 13.3 75 2.5 W 17 24 9 13 1007.7 1007.7 0.4
25/01:00pm 17.6 14.8 13.1 75 2.5 W 20 24 11 13 1008.3 1008.3 0.4
25/12:30pm 17.1 14.1 14.7 86 1.4 SW 24 30 13 16 1008.6 1008.6 0.4
25/12:00pm 17.3 14.7 13.2 77 2.3 W 19 24 10 13 1008.9 1008.9 0.4
25/11:30am 17.1 16.1 14.7 86 1.4 SW 13 26 7 14 1009.2 1009.2 0.4
25/11:00am 16.9 14.9 14.0 83 1.7 WSW 17 20 9 11 1009.7 1009.7 0.4
25/10:30am 15.2 12.0 13.2 88 1.1 SW 22 28 12 15 1010.0 1010.0 0.4
25/10:26am 15.4 13.0 13.8 90 0.9 SW 19 28 10 15 1010.0 1010.0 0.4
25/10:13am 15.7 13.6 14.7 94 0.6 WSW 19 26 10 14 1010.0 1010.0 0.4
25/10:00am 15.3 14.3 14.5 95 0.5 W 13 17 7 9 1010.1 1010.1 0.4
25/09:30am 14.0 12.2 13.2 95 0.4 W 15 19 8 10 1010.1 1010.1 0.2
25/09:18am 13.9 11.6 13.1 95 0.4 WSW 17 20 9 11 1010.2 1010.2 0.2
25/09:00am 14.2 12.0 13.4 95 0.4 W 17 24 9 13 1010.3 1010.3 25.0
25/08:30am 14.2 12.0 13.4 95 0.4 W 17 22 9 12 1010.1 1010.1 24.4
25/08:00am 13.7 11.4 12.9 95 0.4 W 17 20 9 11 1009.7 1009.7 24.4
25/07:30am 13.5 11.1 12.7 95 0.4 W 17 20 9 11 1009.5 1009.5 24.2
25/07:00am 13.7 12.9 12.9 95 0.4 W 9 15 5 8 1009.2 1009.2 24.0
25/06:46am 13.7 12.9 12.9 95 0.4 WSW 9 13 5 7 1008.9 1008.9 24.0
25/06:30am 13.9 12.8 13.1 95 0.4 WSW 11 15 6 8 1009.0 1009.0 24.0
25/06:22am 13.9 12.4 13.1 95 0.4 SW 13 17 7 9 1009.1 1009.1 23.8
25/06:11am 13.8 11.5 13.0 95 0.4 SW 17 20 9 11 1008.9 1008.9 23.8
25/06:00am 13.6 10.7 12.8 95 0.4 SW 20 28 11 15 1008.9 1008.9 23.8
25/05:58am 13.6 10.7 12.8 95 0.4 SW 20 28 11 15 1008.9 1008.9 23.8
25/05:30am 14.3 12.9 13.5 95 0.4 SW 13 17 7 9 1008.7 1008.7 23.8
25/05:00am 14.1 13.1 13.3 95 0.4 SW 11 13 6 7 1008.7 1008.7 23.8
25/04:41am 14.2 13.6 13.4 95 0.4 WSW 9 13 5 7 1008.6 1008.6 23.8
25/04:30am 14.2 13.6 13.4 95 0.4 WSW 9 13 5 7 1008.7 1008.7 23.8
25/04:17am 14.2 13.2 13.4 95 0.4 WSW 11 13 6 7 1008.6 1008.6 23.8
25/04:00am 14.2 12.8 13.4 95 0.4 WSW 13 15 7 8 1008.5 1008.5 23.8
25/03:46am 14.3 12.9 13.5 95 0.4 WSW 13 15 7 8 1008.6 1008.6 23.8
25/03:30am 14.3 12.9 13.5 95 0.4 SW 13 17 7 9 1008.6 1008.6 23.8
25/03:16am 14.3 12.9 13.5 95 0.4 SW 13 15 7 8 1008.6 1008.6 23.8
25/03:00am 14.3 13.3 13.5 95 0.4 WSW 11 15 6 8 1008.8 1008.8 23.8
25/02:30am 14.2 13.6 13.4 95 0.4 SW 9 11 5 6 1009.0 1009.0 23.4
25/02:00am 14.2 13.6 13.4 95 0.4 SW 9 11 5 6 1009.3 1009.3 23.4
25/01:47am 14.3 13.7 13.5 95 0.4 WSW 9 9 5 5 1009.6 1009.6 23.4
25/01:36am 14.3 14.1 13.5 95 0.4 WSW 7 9 4 5 1009.7 1009.7 23.4
25/01:30am 14.3 14.1 13.5 95 0.4 WSW 7 9 4 5 1009.7 1009.7 23.2
25/01:14am 14.3 14.1 13.5 95 0.4 W 7 9 4 5 1009.9 1009.9 23.2
25/01:00am 14.3 14.1 13.5 95 0.4 W 7 9 4 5 1010.1 1010.1 23.2
25/12:30am 14.3 14.6 13.5 95 0.4 NW 4 7 2 4 1010.3 1010.3 23.2
25/12:00am 14.3 15.4 13.5 95 0.4 CALM 0 0 0 0 1010.6 1010.6 22.0
 
Date/Time
EST
Temp
°C
App
Temp
°C
Dew
Point
°C
Rel
Hum
%
Delta-T
°C
Wind Press
QNH
hPa
Press
MSL
hPa
Rain since
9am
mm
Dir  Spd
km/h
Gust
km/h
Spd
kts
Gust
kts
24/11:30pm 14.4 15.5 13.6 95 0.4 CALM 0 0 0 0 1010.9 1010.9 20.8
24/11:17pm 14.4 15.5 13.6 95 0.4 CALM 0 0 0 0 1010.9 1010.9 20.4
24/11:00pm 14.4 15.5 13.6 95 0.4 CALM 0 0 0 0 1011.2 1011.2 20.4
24/10:30pm 14.4 15.5 13.6 95 0.4 CALM 0 0 0 0 1011.6 1011.6 20.4
24/10:00pm 14.4 15.2 13.6 95 0.4 SE 2 6 1 3 1011.9 1011.9 20.2
24/09:30pm 14.4 14.2 13.6 95 0.4 SSE 7 9 4 5 1012.3 1012.3 20.0
24/09:00pm 14.3 14.3 13.5 95 0.4 ESE 6 9 3 5 1012.6 1012.6 19.8
24/08:30pm 14.4 13.8 13.6 95 0.4 E 9 13 5 7 1013.1 1013.0 19.8
24/08:00pm 14.4 13.5 13.6 95 0.4 E 11 15 6 8 1013.3 1013.2 19.8
24/07:52pm 14.4 13.5 13.6 95 0.4 ESE 11 15 6 8 1013.1 1013.0 19.8
24/07:45pm 14.4 13.1 13.6 95 0.4 ESE 13 17 7 9 1013.2 1013.1 19.6
24/07:30pm 14.4 13.1 13.6 95 0.4 ESE 13 17 7 9 1013.5 1013.4 19.6
24/07:00pm 14.5 13.2 13.7 95 0.4 SE 13 17 7 9 1013.4 1013.3 18.8
24/06:53pm 14.5 13.2 13.7 95 0.4 SE 13 17 7 9 1013.7 1013.6 18.8
24/06:49pm 14.4 13.1 13.6 95 0.4 SE 13 17 7 9 1013.7 1013.6 18.6
24/06:36pm 14.4 12.7 13.6 95 0.4 SE 15 20 8 11 1013.8 1013.7 18.4
24/06:31pm 14.4 12.7 13.6 95 0.4 SE 15 20 8 11 1013.8 1013.7 18.4
24/06:30pm 14.5 12.8 13.7 95 0.4 SE 15 20 8 11 1013.8 1013.7 18.2
24/06:00pm 14.5 12.4 13.7 95 0.4 SSE 17 22 9 12 1014.0 1013.9 15.2
24/05:30pm 14.9 13.4 14.1 95 0.5 S 15 20 8 11 1014.3 1014.2 6.0
24/05:15pm 15.1 14.0 14.3 95 0.5 SSW 13 13 7 7 1014.4 1014.3 5.0
24/05:00pm 15.2 13.4 14.4 95 0.5 S 17 20 9 11 1014.1 1014.0 4.2
24/04:30pm 15.4 14.4 14.6 95 0.5 SSE 13 15 7 8 1014.0 1013.9 4.2
24/04:22pm 15.6 15.4 14.8 95 0.5 SSE 9 13 5 7 1014.1 1014.0 4.2
24/04:00pm 15.7 16.5 14.7 94 0.6 ESE 4 7 2 4 1014.5 1014.4 4.0
24/03:30pm 15.8 17.4 14.8 94 0.6 CALM 0 6 0 3 1014.8 1014.7 3.2
24/03:00pm 15.8 16.2 14.8 94 0.6 E 6 7 3 4 1015.1 1015.0 3.0
24/02:45pm 15.7 17.2 14.7 94 0.6 CALM 0 0 0 0 1015.4 1015.3 3.0
24/02:30pm 15.8 17.4 14.8 94 0.6 CALM 0 0 0 0 1015.8 1015.7 2.4
24/02:19pm 15.7 17.2 14.7 94 0.6 CALM 0 0 0 0 1015.9 1015.8 1.6
24/02:00pm 15.8 17.0 14.8 94 0.6 NW 2 9 1 5 1016.1 1016.0 0.8
24/01:30pm 16.1 16.4 15.1 94 0.6 NNW 7 9 4 5 1016.7 1016.6 0.4
24/01:00pm 16.3 16.7 14.7 90 0.9 NNW 6 7 3 4 1016.9 1016.8 0.0
24/12:30pm 16.7 17.7 14.3 86 1.4 NNE 2 7 1 4 1017.3 1017.2 0.0
24/12:03pm 16.9 16.8 14.9 88 1.2 N 9 11 5 6 1017.8 1017.7 0.0
24/12:00pm 16.8 16.6 14.8 88 1.2 N 9 15 5 8 1017.8 1017.7 0.0
24/11:30am 16.4 15.8 14.6 89 1.0 NNE 11 20 6 11 1018.4 1018.3 0.0
24/11:00am 16.7 16.6 14.9 89 1.0 NE 9 13 5 7 1018.7 1018.7 0.0
24/10:30am 16.6 16.1 14.8 89 1.0 NNE 11 15 6 8 1019.0 1019.0 0.0
24/10:00am 15.9 14.8 14.4 91 0.9 NNE 13 17 7 9 1019.5 1019.5 0.0
24/09:33am 15.6 14.6 14.6 94 0.6 NNE 13 17 7 9 1019.8 1019.8 0.0
24/09:30am 15.7 15.1 14.7 94 0.6 NE 11 17 6 9 1019.7 1019.7 0.0

Other Formats:

Comma delimited format used in spreadsheet applications
http://www.bom.gov.au/fwo/IDV60801/IDV60801.94837.axf

JavaScript Object Notation format (JSON) in row-major order
http://www.bom.gov.au/fwo/IDV60801/IDV60801.94837.json